createdAt,value
2022-10-21T00:13:33.782Z,85.18
2022-10-21T00:28:37.056Z,85.13
2022-10-21T00:44:01.038Z,86.42
2022-10-21T00:59:05.488Z,87.15
2022-10-21T01:14:30.386Z,86.70
2022-10-21T01:30:03.352Z,86.83
2022-10-21T01:45:24.940Z,87.10
2022-10-21T02:00:29.499Z,86.44
2022-10-21T02:15:34.754Z,86.79
2022-10-21T02:30:48.638Z,87.51
2022-10-21T02:45:59.281Z,87.22
2022-10-21T03:01:02.750Z,87.33
2022-10-21T03:16:07.050Z,87.41
2022-10-21T03:31:10.133Z,88.17
2022-10-21T03:46:13.152Z,88.20
2022-10-21T04:01:16.233Z,88.66
2022-10-21T04:16:21.838Z,89.23
2022-10-21T04:31:29.792Z,90.07
2022-10-21T04:46:35.149Z,89.61
2022-10-21T05:01:38.031Z,90.34
2022-10-21T05:16:41.291Z,90.19
2022-10-21T05:31:44.720Z,89.17
2022-10-21T05:46:48.966Z,89.35
2022-10-21T06:01:52.648Z,89.90
2022-10-21T06:16:56.473Z,89.37
2022-10-21T06:31:59.936Z,89.69
2022-10-21T06:47:03.550Z,90.15
2022-10-21T07:02:07.250Z,88.87
2022-10-21T07:17:10.268Z,89.09
2022-10-21T07:32:13.256Z,88.31
2022-10-21T07:47:16.854Z,87.91
2022-10-21T08:02:20.418Z,87.80
2022-10-21T08:17:23.378Z,88.09
2022-10-21T08:32:26.741Z,88.10
2022-10-21T08:47:45.567Z,87.24
2022-10-21T09:03:13.507Z,86.50
2022-10-21T09:18:45.600Z,85.54
2022-10-21T09:33:59.709Z,84.50
2022-10-21T10:04:31.870Z,83.62
2022-10-21T10:34:57.424Z,81.63
2022-10-21T10:50:00.820Z,81.78
2022-10-21T11:05:36.307Z,82.06
2022-10-21T11:20:49.112Z,83.18
2022-10-21T11:36:20.795Z,81.16
2022-10-21T11:51:56.646Z,78.94
2022-10-21T12:07:29.882Z,78.99
2022-10-21T12:22:34.936Z,79.43
2022-10-21T12:37:44.982Z,78.28
2022-10-21T12:53:21.690Z,78.30
2022-10-21T13:08:30.447Z,78.61
2022-10-21T13:23:38.317Z,78.69
2022-10-21T13:38:55.781Z,78.85
2022-10-21T13:54:12.244Z,79.61
2022-10-21T14:09:29.095Z,80.69
2022-10-21T14:24:37.015Z,81.39
2022-10-21T14:39:41.001Z,81.84
2022-10-21T14:54:48.397Z,82.49
2022-10-21T15:10:03.484Z,83.03
2022-10-21T15:25:14.960Z,83.80
2022-10-21T15:40:20.759Z,84.59
2022-10-21T15:55:24.346Z,85.34
2022-10-21T16:10:38.255Z,86.13
2022-10-21T16:25:41.658Z,87.28
2022-10-21T16:40:44.912Z,88.16
2022-10-21T16:55:48.583Z,88.74
2022-10-21T17:10:51.921Z,88.92
2022-10-21T17:25:56.679Z,89.50
2022-10-21T17:41:00.814Z,89.30
2022-10-21T17:56:08.160Z,90.34
2022-10-21T18:11:15.989Z,90.47
2022-10-21T18:26:25.952Z,90.90
2022-10-21T18:41:29.777Z,91.61
2022-10-21T18:56:34.451Z,91.54
2022-10-21T19:11:38.300Z,91.66
2022-10-21T19:26:42.872Z,92.57
2022-10-21T19:41:47.243Z,92.73
2022-10-21T19:56:52.933Z,93.13
2022-10-21T20:11:56.813Z,93.81
2022-10-21T20:27:02.279Z,95.52
2022-10-21T20:42:05.620Z,95.44
2022-10-21T20:57:08.636Z,95.78
2022-10-21T21:12:12.216Z,96.18
2022-10-21T21:27:16.131Z,96.29
2022-10-21T21:42:19.115Z,96.66
2022-10-21T21:57:27.663Z,96.20
2022-10-21T22:12:31.537Z,96.29
2022-10-21T22:27:34.884Z,96.77
2022-10-21T22:42:38.039Z,97.42
2022-10-21T22:57:41.009Z,97.37
2022-10-21T23:12:44.655Z,97.87
2022-10-21T23:27:47.864Z,98.61
2022-10-21T23:42:50.956Z,98.62
2022-10-21T23:57:53.961Z,98.66
